createdAt,value
2023-10-07T00:01:38.874Z,3.90
2023-10-07T00:04:11.237Z,3.65
2023-10-07T00:06:39.338Z,3.83
2023-10-07T00:09:11.829Z,4.17
2023-10-07T00:11:39.214Z,4.35
2023-10-07T00:14:11.280Z,4.22
2023-10-07T00:16:39.496Z,4.07
2023-10-07T00:19:08.482Z,4.20
2023-10-07T00:21:59.799Z,3.90
2023-10-07T00:24:36.394Z,3.85
2023-10-07T00:27:05.670Z,4.22
2023-10-07T00:29:52.874Z,3.88
2023-10-07T00:32:20.255Z,3.88
2023-10-07T00:34:48.014Z,3.20
2023-10-07T00:37:17.031Z,3.75
2023-10-07T00:39:44.780Z,3.63
2023-10-07T00:42:12.099Z,3.60
2023-10-07T00:44:40.481Z,3.72
2023-10-07T00:47:07.936Z,3.30
2023-10-07T00:49:51.848Z,3.55
2023-10-07T00:52:26.458Z,3.38
2023-10-07T00:55:01.536Z,3.33
2023-10-07T00:57:34.774Z,3.40
2023-10-07T01:00:24.548Z,3.27
2023-10-07T01:02:58.917Z,3.22
2023-10-07T01:05:34.413Z,3.10
2023-10-07T01:08:01.810Z,3.58
2023-10-07T01:10:33.128Z,3.50
2023-10-07T01:13:04.471Z,3.33
2023-10-07T01:15:35.910Z,3.15
2023-10-07T01:18:06.917Z,3.53
2023-10-07T01:20:54.930Z,3.53
2023-10-07T01:23:25.775Z,3.40
2023-10-07T01:25:54.591Z,3.60
2023-10-07T01:28:22.810Z,3.03
2023-10-07T01:31:09.113Z,2.95
2023-10-07T01:33:40.498Z,3.38
2023-10-07T01:36:17.378Z,3.50
2023-10-07T01:38:52.882Z,3.40
2023-10-07T01:41:29.116Z,3.20
2023-10-07T01:44:06.361Z,2.75
2023-10-07T01:46:36.321Z,3.20
2023-10-07T01:49:13.989Z,3.10
2023-10-07T01:51:45.878Z,2.87
2023-10-07T01:54:13.614Z,3.20
2023-10-07T01:56:41.043Z,3.20
2023-10-07T01:59:15.470Z,3.42
2023-10-07T02:02:00.184Z,3.20
2023-10-07T02:04:28.889Z,3.17
2023-10-07T02:06:57.726Z,2.75
2023-10-07T02:09:29.251Z,3.17
2023-10-07T02:12:13.148Z,3.10
2023-10-07T02:14:40.616Z,3.20
2023-10-07T02:17:08.647Z,3.27
2023-10-07T02:19:36.080Z,2.60
2023-10-07T02:22:04.948Z,2.95
2023-10-07T02:24:33.404Z,3.45
2023-10-07T02:27:08.154Z,3.42
2023-10-07T02:29:36.044Z,3.13
2023-10-07T02:32:15.284Z,2.47
2023-10-07T02:34:56.486Z,2.90
2023-10-07T02:37:27.468Z,2.50
2023-10-07T02:39:57.738Z,2.70
2023-10-07T02:42:32.706Z,2.70
2023-10-07T02:45:21.689Z,2.72
2023-10-07T02:47:51.489Z,3.10
2023-10-07T02:50:19.561Z,2.50
2023-10-07T02:52:48.364Z,2.70
2023-10-07T02:55:19.472Z,2.60
2023-10-07T02:57:56.639Z,2.40
2023-10-07T03:00:36.444Z,2.20
2023-10-07T03:03:21.033Z,2.45
2023-10-07T03:05:58.687Z,2.47
2023-10-07T03:08:41.687Z,2.70
2023-10-07T03:11:13.383Z,2.80
2023-10-07T03:13:41.027Z,2.75
2023-10-07T03:16:29.182Z,2.60
2023-10-07T03:18:58.135Z,2.38
2023-10-07T03:21:36.829Z,2.43
2023-10-07T03:24:09.800Z,2.65
2023-10-07T03:26:41.969Z,2.92
2023-10-07T03:29:09.465Z,2.38
2023-10-07T03:31:40.049Z,2.40
2023-10-07T03:34:13.346Z,2.33
2023-10-07T03:37:09.764Z,2.47
2023-10-07T03:39:55.673Z,2.30
2023-10-07T03:42:24.118Z,2.60
2023-10-07T03:44:51.665Z,2.60
2023-10-07T03:47:19.100Z,2.50
2023-10-07T03:49:54.662Z,2.28
2023-10-07T03:52:22.444Z,2.88
2023-10-07T03:54:49.981Z,2.65
2023-10-07T03:57:17.375Z,2.97
2023-10-07T03:59:46.886Z,3.13
2023-10-07T04:02:30.393Z,3.25
2023-10-07T04:05:11.066Z,3.33
2023-10-07T04:07:38.751Z,3.38
2023-10-07T04:10:21.470Z,3.90
2023-10-07T04:12:50.842Z,4.00
2023-10-07T04:15:18.456Z,4.22
2023-10-07T04:17:46.627Z,4.25
2023-10-07T04:20:20.090Z,4.18
2023-10-07T04:23:02.322Z,4.35
2023-10-07T04:25:32.271Z,4.87
2023-10-07T04:28:00.575Z,7.53
2023-10-07T04:30:40.818Z,9.20
2023-10-07T04:33:10.231Z,7.57
2023-10-07T04:35:39.029Z,6.75
2023-10-07T04:38:26.601Z,7.97
2023-10-07T04:41:15.369Z,7.63
2023-10-07T04:43:45.693Z,7.57
2023-10-07T04:46:25.713Z,7.72
2023-10-07T04:48:57.346Z,7.55
2023-10-07T04:51:33.752Z,8.63
2023-10-07T04:54:01.158Z,8.82
2023-10-07T04:56:28.995Z,9.55
2023-10-07T04:58:56.556Z,8.77
2023-10-07T05:01:32.310Z,8.40
2023-10-07T05:04:09.755Z,7.80
2023-10-07T05:06:38.683Z,7.95
2023-10-07T05:09:11.007Z,8.65
2023-10-07T05:11:42.416Z,8.27
2023-10-07T05:14:11.804Z,8.52
2023-10-07T05:16:39.817Z,8.67
2023-10-07T05:19:10.903Z,7.97
2023-10-07T05:21:41.175Z,7.57
2023-10-07T05:24:11.820Z,8.10
2023-10-07T05:26:42.465Z,6.78
2023-10-07T05:29:14.385Z,7.90
2023-10-07T05:31:44.160Z,7.25
2023-10-07T05:34:12.176Z,7.38
2023-10-07T05:36:40.316Z,6.82
2023-10-07T05:39:09.332Z,7.07
2023-10-07T05:41:40.704Z,6.97
2023-10-07T05:44:10.956Z,6.50
2023-10-07T05:46:38.673Z,7.45
2023-10-07T05:49:07.718Z,7.38
2023-10-07T05:51:37.532Z,6.32
2023-10-07T05:54:06.453Z,5.97
2023-10-07T05:56:33.805Z,7.07
2023-10-07T05:59:03.140Z,7.05
2023-10-07T06:01:35.227Z,6.05
2023-10-07T06:04:02.861Z,7.00
2023-10-07T06:06:32.997Z,5.87
2023-10-07T06:09:04.646Z,6.10
2023-10-07T06:11:33.394Z,5.50
2023-10-07T06:14:00.811Z,5.35
2023-10-07T06:16:30.787Z,5.30
2023-10-07T06:18:59.796Z,4.70
2023-10-07T06:21:29.105Z,4.80
2023-10-07T06:24:00.274Z,4.72
2023-10-07T06:26:31.664Z,5.10
2023-10-07T06:29:07.516Z,5.43
2023-10-07T06:31:35.395Z,5.43
2023-10-07T06:34:13.861Z,5.40
2023-10-07T06:36:41.782Z,6.07
2023-10-07T06:39:09.443Z,6.78
2023-10-07T06:41:36.926Z,6.10
2023-10-07T06:44:04.525Z,6.67
2023-10-07T06:46:41.861Z,7.00
2023-10-07T06:49:20.979Z,6.85
2023-10-07T06:51:52.585Z,6.68
2023-10-07T06:54:20.835Z,7.00
2023-10-07T06:56:51.339Z,6.70
2023-10-07T06:59:19.508Z,5.82
2023-10-07T07:01:46.978Z,5.35
2023-10-07T07:04:20.247Z,6.13
2023-10-07T07:06:58.651Z,5.85
2023-10-07T07:09:44.854Z,5.60
2023-10-07T07:12:13.484Z,5.10
2023-10-07T07:14:47.743Z,5.70
2023-10-07T07:17:31.016Z,5.82
2023-10-07T07:20:13.322Z,5.18
2023-10-07T07:22:47.824Z,6.47
2023-10-07T07:25:39.400Z,6.00
2023-10-07T07:28:07.913Z,6.43
2023-10-07T07:30:36.717Z,6.72
2023-10-07T07:33:16.604Z,6.55
2023-10-07T07:35:52.533Z,7.03
2023-10-07T07:38:24.081Z,6.50
2023-10-07T07:40:53.750Z,6.68
2023-10-07T07:43:21.394Z,6.70
2023-10-07T07:45:57.506Z,6.90
2023-10-07T07:48:26.705Z,6.23
2023-10-07T07:50:55.434Z,6.07
2023-10-07T07:53:22.885Z,6.25
2023-10-07T07:55:56.319Z,5.90
2023-10-07T07:58:24.505Z,6.50
2023-10-07T08:01:00.348Z,6.43
2023-10-07T08:03:27.974Z,7.10
2023-10-07T08:05:55.468Z,6.65
2023-10-07T08:08:30.216Z,6.55
2023-10-07T08:10:58.450Z,6.13
2023-10-07T08:13:26.064Z,6.27
2023-10-07T08:15:53.450Z,6.80
2023-10-07T08:18:30.242Z,5.30
2023-10-07T08:20:59.473Z,6.10
2023-10-07T08:23:30.757Z,5.28
2023-10-07T08:26:10.449Z,5.00
2023-10-07T08:28:41.650Z,5.05
2023-10-07T08:31:21.914Z,5.38
2023-10-07T08:33:55.206Z,4.97
2023-10-07T08:36:30.433Z,4.80
2023-10-07T08:39:00.350Z,4.77
2023-10-07T08:41:28.242Z,4.82
2023-10-07T08:44:16.821Z,4.80
2023-10-07T08:46:54.620Z,5.20
2023-10-07T08:49:28.424Z,4.97
2023-10-07T08:51:56.679Z,4.97
2023-10-07T08:54:27.865Z,5.05
2023-10-07T08:57:10.255Z,5.10
2023-10-07T08:59:38.433Z,5.10
2023-10-07T09:02:05.897Z,4.68
2023-10-07T09:04:33.472Z,4.17
2023-10-07T09:07:01.490Z,4.07
2023-10-07T09:09:33.989Z,3.67
2023-10-07T09:12:09.291Z,3.95
2023-10-07T09:14:36.677Z,3.28
2023-10-07T09:17:06.003Z,3.50
2023-10-07T09:19:35.557Z,3.40
2023-10-07T09:22:11.721Z,3.45
2023-10-07T09:24:45.158Z,3.50
2023-10-07T09:27:14.332Z,3.38
2023-10-07T09:29:45.655Z,3.57
2023-10-07T09:32:18.210Z,3.45
2023-10-07T09:34:45.542Z,3.58
2023-10-07T09:37:14.760Z,4.20
2023-10-07T09:39:46.043Z,3.95
2023-10-07T09:42:27.541Z,3.90
2023-10-07T09:45:16.815Z,3.63
2023-10-07T09:47:48.137Z,3.65
2023-10-07T09:50:25.176Z,4.00
2023-10-07T09:53:16.312Z,4.30
2023-10-07T09:55:58.508Z,4.13
2023-10-07T09:58:38.053Z,4.30
2023-10-07T10:01:29.748Z,4.50
2023-10-07T10:04:13.034Z,4.25
2023-10-07T10:07:01.701Z,4.50
2023-10-07T10:09:29.151Z,4.00
2023-10-07T10:12:19.399Z,3.95
2023-10-07T10:15:18.783Z,3.78
2023-10-07T10:17:54.501Z,3.50
2023-10-07T10:20:28.992Z,4.07
2023-10-07T10:23:00.707Z,4.43
2023-10-07T10:25:37.482Z,3.45
2023-10-07T10:28:05.143Z,4.40
2023-10-07T10:30:32.489Z,3.50
2023-10-07T10:33:01.959Z,3.90
2023-10-07T10:35:30.379Z,3.93
2023-10-07T10:37:58.333Z,3.78
2023-10-07T10:40:29.081Z,3.95
2023-10-07T10:42:56.404Z,3.80
2023-10-07T10:45:26.209Z,4.15
2023-10-07T10:47:54.627Z,3.63
2023-10-07T10:50:24.971Z,3.50
2023-10-07T10:52:55.429Z,4.07
2023-10-07T10:55:26.739Z,3.50
2023-10-07T10:57:54.103Z,4.20
2023-10-07T11:00:22.988Z,3.53
2023-10-07T11:02:50.978Z,3.47
2023-10-07T11:05:18.629Z,3.88
2023-10-07T11:07:48.220Z,3.47
2023-10-07T11:10:24.406Z,3.55
2023-10-07T11:12:55.797Z,3.60
2023-10-07T11:15:26.260Z,3.80
2023-10-07T11:17:59.651Z,3.75
2023-10-07T11:20:34.496Z,3.63
2023-10-07T11:23:04.076Z,3.80
2023-10-07T11:25:31.495Z,3.50
2023-10-07T11:27:59.976Z,3.80
2023-10-07T11:30:27.388Z,3.67
2023-10-07T11:32:56.121Z,3.42
2023-10-07T11:35:29.239Z,3.15
2023-10-07T11:37:59.802Z,2.80
2023-10-07T11:40:28.696Z,3.80
2023-10-07T11:42:57.781Z,2.45
2023-10-07T11:45:27.855Z,1.70
2023-10-07T11:47:58.492Z,2.85
2023-10-07T11:50:30.485Z,3.17
2023-10-07T11:52:58.278Z,2.20
2023-10-07T11:55:28.753Z,2.28
2023-10-07T11:57:56.080Z,2.08
2023-10-07T12:00:30.551Z,1.88
2023-10-07T12:03:01.499Z,1.93
2023-10-07T12:05:29.439Z,2.25
2023-10-07T12:07:57.544Z,2.00
2023-10-07T12:10:24.880Z,2.03
2023-10-07T12:12:53.294Z,2.15
2023-10-07T12:15:22.318Z,1.90
2023-10-07T12:17:52.467Z,2.20
2023-10-07T12:20:24.037Z,2.55
2023-10-07T12:22:54.301Z,2.15
2023-10-07T12:25:22.883Z,2.45
2023-10-07T12:27:50.717Z,2.33
2023-10-07T12:30:24.153Z,2.20
2023-10-07T12:32:51.560Z,2.25
2023-10-07T12:35:19.814Z,2.22
2023-10-07T12:37:50.097Z,2.25
2023-10-07T12:40:21.534Z,2.50
2023-10-07T12:42:53.389Z,2.15
2023-10-07T12:45:20.976Z,2.47
2023-10-07T12:47:52.768Z,2.20
2023-10-07T12:50:21.966Z,2.10
2023-10-07T12:52:50.064Z,2.20
2023-10-07T12:55:17.640Z,2.13
2023-10-07T12:57:45.379Z,2.20
2023-10-07T13:00:33.229Z,2.30
2023-10-07T13:03:03.472Z,2.05
2023-10-07T13:05:34.099Z,2.33
2023-10-07T13:08:01.419Z,1.90
2023-10-07T13:10:30.651Z,2.15
2023-10-07T13:12:59.292Z,2.00
2023-10-07T13:15:35.220Z,1.90
2023-10-07T13:18:03.854Z,1.70
2023-10-07T13:20:31.815Z,2.22
2023-10-07T13:22:59.517Z,2.30
2023-10-07T13:25:27.649Z,2.30
2023-10-07T13:27:59.177Z,2.35
2023-10-07T13:30:26.476Z,1.90
2023-10-07T13:32:58.250Z,2.42
2023-10-07T13:35:28.875Z,2.17
2023-10-07T13:37:58.216Z,1.80
2023-10-07T13:40:25.589Z,1.88
2023-10-07T13:42:54.079Z,2.07
2023-10-07T13:45:25.024Z,2.30
2023-10-07T13:47:52.952Z,2.20
2023-10-07T13:50:26.852Z,2.22
2023-10-07T13:53:00.580Z,2.15
2023-10-07T13:55:55.682Z,2.60
2023-10-07T13:58:23.127Z,2.42
2023-10-07T14:00:53.410Z,2.50
2023-10-07T14:03:22.324Z,2.90
2023-10-07T14:05:52.180Z,2.83
2023-10-07T14:08:25.294Z,3.00
2023-10-07T14:10:53.760Z,3.13
2023-10-07T14:13:21.253Z,3.00
2023-10-07T14:15:51.558Z,3.03
2023-10-07T14:18:22.852Z,2.88
2023-10-07T14:20:57.576Z,2.83
2023-10-07T14:23:25.590Z,2.70
2023-10-07T14:25:54.218Z,2.88
2023-10-07T14:28:22.229Z,2.65
2023-10-07T14:30:50.360Z,3.15
2023-10-07T14:33:18.127Z,3.13
2023-10-07T14:35:46.425Z,3.22
2023-10-07T14:38:14.199Z,2.83
2023-10-07T14:40:51.928Z,3.42
2023-10-07T14:43:20.245Z,3.22
2023-10-07T14:45:48.535Z,3.03
2023-10-07T14:48:17.210Z,3.22
2023-10-07T14:50:44.749Z,3.55
2023-10-07T14:53:14.881Z,3.70
2023-10-07T14:55:45.861Z,3.70
2023-10-07T14:58:16.413Z,3.70
2023-10-07T15:00:47.541Z,3.70
2023-10-07T15:03:18.170Z,4.18
2023-10-07T15:05:45.716Z,4.20
2023-10-07T15:08:14.428Z,3.58
2023-10-07T15:10:45.416Z,3.50
2023-10-07T15:13:13.009Z,3.80
2023-10-07T15:15:40.892Z,3.65
2023-10-07T15:18:08.250Z,3.35
2023-10-07T15:20:35.773Z,3.35
2023-10-07T15:23:03.586Z,3.07
2023-10-07T15:25:32.226Z,3.47
2023-10-07T15:27:59.588Z,3.47
2023-10-07T15:30:29.686Z,3.45
2023-10-07T15:32:57.029Z,3.70
2023-10-07T15:35:24.586Z,3.27
2023-10-07T15:37:52.812Z,3.05
2023-10-07T15:40:20.126Z,3.50
2023-10-07T15:42:50.055Z,3.40
2023-10-07T15:45:17.410Z,3.75
2023-10-07T15:47:45.042Z,3.40
2023-10-07T15:50:12.501Z,3.88
2023-10-07T15:52:41.071Z,3.78
2023-10-07T15:55:08.718Z,3.55
2023-10-07T15:57:36.185Z,3.40
2023-10-07T16:00:13.538Z,3.50
2023-10-07T16:02:41.196Z,3.10
2023-10-07T16:05:09.061Z,3.72
2023-10-07T16:07:39.545Z,3.13
2023-10-07T16:10:14.039Z,3.30
2023-10-07T16:12:42.832Z,2.93
2023-10-07T16:15:10.655Z,2.90
2023-10-07T16:17:41.561Z,3.13
2023-10-07T16:20:11.282Z,2.92
2023-10-07T16:22:38.893Z,3.17
2023-10-07T16:25:09.959Z,3.27
2023-10-07T16:27:37.309Z,2.97
2023-10-07T16:30:06.945Z,3.65
2023-10-07T16:32:34.687Z,3.95
2023-10-07T16:35:04.915Z,3.35
2023-10-07T16:37:33.267Z,3.60
2023-10-07T16:40:00.576Z,3.65
2023-10-07T16:42:29.452Z,3.70
2023-10-07T16:44:57.056Z,2.40
2023-10-07T16:47:24.670Z,2.95
2023-10-07T16:49:52.132Z,2.80
2023-10-07T16:52:20.001Z,3.00
2023-10-07T16:54:47.303Z,3.17
2023-10-07T16:57:14.746Z,3.08
2023-10-07T16:59:42.271Z,3.15
2023-10-07T17:02:11.889Z,3.57
2023-10-07T17:04:40.613Z,3.10
2023-10-07T17:07:07.987Z,3.83
2023-10-07T17:09:35.702Z,3.60
2023-10-07T17:12:03.206Z,4.03
2023-10-07T17:14:33.078Z,3.80
2023-10-07T17:17:00.716Z,3.78
2023-10-07T17:19:29.286Z,2.88
2023-10-07T17:21:56.649Z,3.10
2023-10-07T17:24:24.040Z,3.13
2023-10-07T17:26:51.808Z,3.00
2023-10-07T17:29:19.171Z,2.95
2023-10-07T17:31:46.531Z,3.30
2023-10-07T17:34:13.872Z,3.20
2023-10-07T17:36:41.179Z,3.00
2023-10-07T17:39:12.515Z,2.93
2023-10-07T17:41:40.287Z,2.70
2023-10-07T17:44:09.499Z,2.78
2023-10-07T17:46:36.892Z,2.58
2023-10-07T17:49:04.204Z,3.50
2023-10-07T17:51:31.498Z,2.90
2023-10-07T17:53:58.893Z,2.85
2023-10-07T17:56:26.372Z,2.97
2023-10-07T17:58:53.745Z,3.28
2023-10-07T18:01:21.031Z,2.67
2023-10-07T18:03:49.124Z,2.63
2023-10-07T18:06:16.481Z,2.78
2023-10-07T18:08:44.520Z,2.88
2023-10-07T18:11:12.799Z,3.00
2023-10-07T18:13:40.243Z,3.03
2023-10-07T18:16:08.484Z,3.13
2023-10-07T18:18:38.270Z,3.15
2023-10-07T18:21:07.169Z,3.20
2023-10-07T18:23:38.077Z,2.90
2023-10-07T18:26:05.557Z,2.88
2023-10-07T18:28:33.049Z,3.47
2023-10-07T18:31:02.628Z,2.88
2023-10-07T18:33:30.410Z,3.33
2023-10-07T18:35:58.856Z,3.30
2023-10-07T18:38:26.859Z,2.85
2023-10-07T18:40:54.192Z,3.03
2023-10-07T18:43:21.468Z,3.22
2023-10-07T18:45:53.481Z,3.53
2023-10-07T18:48:20.863Z,3.35
2023-10-07T18:50:49.324Z,3.05
2023-10-07T18:53:16.783Z,3.03
2023-10-07T18:55:44.089Z,3.53
2023-10-07T18:58:13.604Z,3.15
2023-10-07T19:00:40.916Z,3.25
2023-10-07T19:03:08.412Z,3.33
2023-10-07T19:05:35.909Z,3.33
2023-10-07T19:08:03.357Z,3.40
2023-10-07T19:10:31.414Z,3.35
2023-10-07T19:13:00.205Z,3.38
2023-10-07T19:15:28.604Z,3.80
2023-10-07T19:17:56.161Z,3.20
2023-10-07T19:20:24.790Z,3.53
2023-10-07T19:22:52.211Z,3.58
2023-10-07T19:25:19.581Z,3.85
2023-10-07T19:27:46.968Z,4.13
2023-10-07T19:30:15.262Z,4.07
2023-10-07T19:32:43.427Z,3.97
2023-10-07T19:35:11.782Z,4.15
2023-10-07T19:37:39.877Z,3.20
2023-10-07T19:40:08.064Z,3.40
2023-10-07T19:42:35.441Z,3.53
2023-10-07T19:45:02.829Z,3.67
2023-10-07T19:47:30.235Z,3.97
2023-10-07T19:49:57.651Z,3.38
2023-10-07T19:52:24.969Z,3.70
2023-10-07T19:54:53.499Z,3.23
2023-10-07T19:57:21.264Z,3.50
2023-10-07T19:59:48.909Z,3.03
2023-10-07T20:02:17.279Z,2.90
2023-10-07T20:04:45.753Z,3.00
2023-10-07T20:07:14.709Z,3.60
2023-10-07T20:09:42.181Z,3.10
2023-10-07T20:12:10.513Z,3.53
2023-10-07T20:14:37.957Z,3.55
2023-10-07T20:17:05.631Z,3.33
2023-10-07T20:19:33.122Z,3.50
2023-10-07T20:22:00.438Z,2.88
2023-10-07T20:24:27.791Z,3.20
2023-10-07T20:26:55.313Z,2.80
2023-10-07T20:29:22.664Z,2.95
2023-10-07T20:31:50.034Z,2.83
2023-10-07T20:34:17.823Z,3.20
2023-10-07T20:36:45.090Z,3.50
2023-10-07T20:39:12.796Z,3.03
2023-10-07T20:41:41.795Z,3.30
2023-10-07T20:44:09.340Z,3.00
2023-10-07T20:46:36.940Z,3.40
2023-10-07T20:49:04.854Z,3.08
2023-10-07T20:51:32.167Z,3.30
2023-10-07T20:54:00.802Z,2.80
2023-10-07T20:56:28.495Z,3.10
2023-10-07T20:58:55.870Z,3.47
2023-10-07T21:01:24.963Z,3.40
2023-10-07T21:03:53.888Z,2.42
2023-10-07T21:06:21.834Z,2.58
2023-10-07T21:08:51.475Z,2.87
2023-10-07T21:11:22.271Z,2.80
2023-10-07T21:13:49.994Z,2.67
2023-10-07T21:16:17.501Z,2.58
2023-10-07T21:18:46.076Z,3.15
2023-10-07T21:21:14.049Z,2.57
2023-10-07T21:23:44.563Z,2.42
2023-10-07T21:26:17.820Z,2.72
2023-10-07T21:28:45.365Z,3.03
2023-10-07T21:31:12.760Z,2.10
2023-10-07T21:33:40.051Z,2.50
2023-10-07T21:36:07.947Z,2.63
2023-10-07T21:38:36.119Z,2.47
2023-10-07T21:41:03.828Z,2.45
2023-10-07T21:43:31.275Z,2.30
2023-10-07T21:46:00.035Z,2.50
2023-10-07T21:48:27.547Z,2.75
2023-10-07T21:50:55.254Z,2.17
2023-10-07T21:53:23.260Z,2.60
2023-10-07T21:55:50.583Z,2.50
2023-10-07T21:58:17.902Z,2.37
2023-10-07T22:00:47.209Z,2.80
2023-10-07T22:03:17.761Z,2.70
2023-10-07T22:05:47.816Z,2.10
2023-10-07T22:08:15.976Z,2.20
2023-10-07T22:10:45.488Z,2.20
2023-10-07T22:13:18.972Z,2.45
2023-10-07T22:15:53.232Z,2.40
2023-10-07T22:18:20.968Z,2.33
2023-10-07T22:20:50.910Z,2.67
2023-10-07T22:23:20.731Z,2.70
2023-10-07T22:25:51.991Z,2.58
2023-10-07T22:28:22.664Z,2.30
2023-10-07T22:30:56.877Z,2.88
2023-10-07T22:33:26.475Z,2.70
2023-10-07T22:36:00.829Z,2.33
2023-10-07T22:38:28.340Z,2.35
2023-10-07T22:40:59.734Z,2.22
2023-10-07T22:43:36.140Z,2.22
2023-10-07T22:46:05.260Z,2.55
2023-10-07T22:48:36.523Z,2.40
2023-10-07T22:51:24.592Z,2.30
2023-10-07T22:54:02.317Z,2.30
2023-10-07T22:56:32.834Z,2.38
2023-10-07T22:59:05.871Z,2.08
2023-10-07T23:01:36.845Z,2.40
2023-10-07T23:04:34.005Z,2.47
2023-10-07T23:07:01.720Z,2.58
2023-10-07T23:09:37.477Z,2.50
2023-10-07T23:12:16.366Z,2.67
2023-10-07T23:14:46.148Z,2.43
2023-10-07T23:17:23.085Z,2.60
2023-10-07T23:19:51.875Z,1.95
2023-10-07T23:22:21.975Z,2.60
2023-10-07T23:24:53.605Z,2.83
2023-10-07T23:27:24.033Z,2.43
2023-10-07T23:29:56.355Z,2.45
2023-10-07T23:32:23.929Z,2.28
2023-10-07T23:34:54.795Z,2.30
2023-10-07T23:37:25.900Z,2.50
2023-10-07T23:39:58.618Z,2.37
2023-10-07T23:42:26.575Z,2.60
2023-10-07T23:44:57.573Z,3.03
2023-10-07T23:47:25.074Z,2.78
2023-10-07T23:49:56.053Z,2.55
2023-10-07T23:52:26.744Z,2.40
2023-10-07T23:55:00.292Z,2.50
2023-10-07T23:57:31.230Z,2.55
2023-10-07T23:59:59.191Z,2.50
